createdAt,value
2018-02-15T00:00:09.787Z,3.66
2018-02-15T00:02:38.798Z,3.64
2018-02-15T00:05:07.797Z,3.64
2018-02-15T00:10:12.244Z,3.65
2018-02-15T00:12:41.682Z,3.66
2018-02-15T00:15:10.742Z,3.68
2018-02-15T00:17:39.748Z,3.65
2018-02-15T00:20:08.735Z,3.65
2018-02-15T00:22:37.752Z,3.64
2018-02-15T00:25:06.756Z,3.66
2018-02-15T00:27:35.751Z,3.65
2018-02-15T00:30:04.752Z,3.66
2018-02-15T00:32:33.785Z,3.65
2018-02-15T00:35:02.803Z,3.67
2018-02-15T00:37:33.770Z,3.68
2018-02-15T00:40:02.780Z,3.69
2018-02-15T00:42:31.875Z,3.70
2018-02-15T00:45:01.249Z,3.67
2018-02-15T00:47:30.724Z,3.66
2018-02-15T00:49:59.755Z,3.66
2018-02-15T00:52:28.782Z,3.65
2018-02-15T00:54:57.783Z,3.66
2018-02-15T00:57:26.754Z,3.65
2018-02-15T00:59:55.765Z,3.65
2018-02-15T01:02:24.759Z,3.64
2018-02-15T01:04:53.752Z,3.66
2018-02-15T01:07:22.746Z,3.69
2018-02-15T01:09:51.784Z,3.58
2018-02-15T01:12:20.770Z,3.68
2018-02-15T01:14:49.744Z,3.68
2018-02-15T01:17:18.731Z,3.70
2018-02-15T01:19:47.794Z,3.68
2018-02-15T01:22:16.806Z,3.68
2018-02-15T01:24:45.777Z,3.67
2018-02-15T01:27:14.735Z,3.68
2018-02-15T01:29:43.738Z,3.68
2018-02-15T01:32:12.719Z,3.68
2018-02-15T01:34:41.769Z,3.69
2018-02-15T01:37:10.740Z,3.69
2018-02-15T01:39:41.732Z,3.70
2018-02-15T01:42:10.726Z,3.67
2018-02-15T01:44:39.752Z,3.69
2018-02-15T01:47:10.730Z,3.67
2018-02-15T01:49:45.741Z,3.65
2018-02-15T01:52:14.833Z,3.66
2018-02-15T01:54:45.248Z,3.65
2018-02-15T01:57:16.020Z,3.66
2018-02-15T02:00:16.405Z,3.68
2018-02-15T02:02:47.538Z,3.66
2018-02-15T02:05:16.730Z,3.67
2018-02-15T02:07:45.773Z,3.69
2018-02-15T02:10:14.766Z,3.70
2018-02-15T02:12:43.764Z,3.71
2018-02-15T02:15:12.768Z,3.72
2018-02-15T02:17:41.812Z,3.71
2018-02-15T02:20:10.916Z,3.72
2018-02-15T02:22:39.776Z,3.73
2018-02-15T02:25:08.774Z,3.73
2018-02-15T02:27:37.786Z,3.73
2018-02-15T02:30:07.081Z,3.73
2018-02-15T02:32:36.684Z,3.73
2018-02-15T02:35:05.753Z,3.72
2018-02-15T02:37:36.768Z,3.73
2018-02-15T02:40:05.801Z,3.73
2018-02-15T02:42:34.848Z,3.73
2018-02-15T02:45:03.772Z,3.73
2018-02-15T02:47:32.767Z,3.72
2018-02-15T02:50:01.802Z,3.75
2018-02-15T02:52:30.780Z,3.74
2018-02-15T02:54:59.796Z,3.74
2018-02-15T02:57:28.774Z,3.74
2018-02-15T02:59:57.874Z,3.74
2018-02-15T03:02:26.892Z,3.72
2018-02-15T03:04:57.010Z,3.72
2018-02-15T03:07:26.706Z,3.72
2018-02-15T03:09:55.800Z,3.73
2018-02-15T03:12:25.302Z,3.73
2018-02-15T03:14:54.764Z,3.72
2018-02-15T03:17:24.035Z,3.70
2018-02-15T03:19:53.243Z,3.73
2018-02-15T03:22:22.762Z,3.70
2018-02-15T03:24:51.776Z,3.69
2018-02-15T03:27:20.793Z,3.67
2018-02-15T03:29:49.748Z,3.70
2018-02-15T03:32:18.750Z,3.71
2018-02-15T03:34:47.740Z,3.71
2018-02-15T03:37:16.758Z,3.71
2018-02-15T03:39:45.764Z,3.70
2018-02-15T03:42:14.776Z,3.64
2018-02-15T03:44:43.776Z,3.65
2018-02-15T03:47:12.798Z,3.66
2018-02-15T03:49:41.793Z,3.68
2018-02-15T03:52:10.785Z,3.64
2018-02-15T03:54:39.791Z,3.67
2018-02-15T03:57:08.837Z,3.67
2018-02-15T03:59:37.795Z,3.68
2018-02-15T04:02:06.795Z,3.67
2018-02-15T04:04:35.815Z,3.71
2018-02-15T04:07:04.863Z,3.71
2018-02-15T04:09:33.809Z,3.72
2018-02-15T04:12:02.803Z,3.73
2018-02-15T04:15:31.529Z,3.70
2018-02-15T04:18:01.402Z,3.68
2018-02-15T04:20:30.804Z,3.71
2018-02-15T04:23:00.403Z,3.68
2018-02-15T04:27:04.421Z,3.69
2018-02-15T04:31:02.547Z,3.69
2018-02-15T04:34:02.593Z,3.60
2018-02-15T04:36:32.102Z,3.57
2018-02-15T04:39:01.680Z,3.59
2018-02-15T04:41:31.066Z,3.60
2018-02-15T04:44:00.748Z,3.57
2018-02-15T04:46:29.863Z,3.49
2018-02-15T04:48:59.496Z,3.51
2018-02-15T04:51:28.887Z,3.55
2018-02-15T04:53:58.521Z,3.51
2018-02-15T04:56:28.191Z,3.52
2018-02-15T04:58:57.786Z,3.53
2018-02-15T05:01:27.504Z,3.54
2018-02-15T05:03:57.407Z,3.50
2018-02-15T05:06:27.537Z,3.43
2018-02-15T05:08:56.811Z,3.49
2018-02-15T05:11:25.766Z,3.51
2018-02-15T05:13:55.058Z,3.41
2018-02-15T05:16:24.275Z,3.48
2018-02-15T05:18:55.571Z,3.53
2018-02-15T05:21:24.794Z,3.50
2018-02-15T05:23:53.836Z,3.46
2018-02-15T05:26:22.815Z,3.51
2018-02-15T05:28:52.051Z,3.49
2018-02-15T05:31:21.207Z,3.45
2018-02-15T05:33:50.732Z,3.44
2018-02-15T05:36:19.865Z,3.39
2018-02-15T05:38:48.869Z,3.37
2018-02-15T05:41:17.848Z,3.37
2018-02-15T05:43:47.080Z,3.45
2018-02-15T05:46:16.247Z,3.51
2018-02-15T05:48:45.770Z,3.51
2018-02-15T05:51:14.784Z,3.50
2018-02-15T05:53:43.884Z,3.52
2018-02-15T05:56:13.314Z,3.49
2018-02-15T05:58:42.767Z,3.39
2018-02-15T06:01:11.766Z,3.44
2018-02-15T06:03:40.750Z,3.38
2018-02-15T06:06:09.750Z,3.43
2018-02-15T06:08:38.768Z,3.49
2018-02-15T06:11:08.450Z,3.38
2018-02-15T06:13:40.484Z,3.45
2018-02-15T06:16:09.832Z,3.43
2018-02-15T06:18:39.674Z,3.38
2018-02-15T06:21:08.803Z,3.38
2018-02-15T06:23:38.094Z,3.42
2018-02-15T06:26:07.688Z,3.43
2018-02-15T06:28:37.078Z,3.39
2018-02-15T06:31:06.851Z,3.42
2018-02-15T06:33:36.286Z,3.44
2018-02-15T06:36:05.790Z,3.44
2018-02-15T06:38:35.294Z,3.45
2018-02-15T06:41:04.784Z,3.40
2018-02-15T06:44:27.103Z,3.45
2018-02-15T06:46:57.422Z,3.44
2018-02-15T06:49:27.542Z,3.44
2018-02-15T06:51:56.790Z,3.48
2018-02-15T06:54:28.004Z,3.51
2018-02-15T06:56:59.878Z,3.49
2018-02-15T06:59:29.097Z,3.49
2018-02-15T07:01:58.762Z,3.44
2018-02-15T07:04:29.732Z,3.42
2018-02-15T07:07:01.711Z,3.43
2018-02-15T07:09:33.749Z,3.43
2018-02-15T07:12:06.023Z,3.48
2018-02-15T07:14:35.615Z,3.49
2018-02-15T07:17:04.840Z,3.50
2018-02-15T07:19:34.116Z,3.52
2018-02-15T07:22:03.789Z,3.50
2018-02-15T07:24:32.834Z,3.52
2018-02-15T07:28:29.072Z,3.50
2018-02-15T07:30:59.032Z,3.52
2018-02-15T07:44:30.859Z,3.55
2018-02-15T07:47:01.575Z,3.54
2018-02-15T07:56:26.507Z,3.53
2018-02-15T07:59:00.701Z,3.56
2018-02-15T08:01:30.444Z,3.51
2018-02-15T08:04:00.222Z,3.52
2018-02-15T08:06:30.115Z,3.52
2018-02-15T08:09:05.056Z,3.52
2018-02-15T08:11:38.376Z,3.51
2018-02-15T08:14:10.746Z,3.50
2018-02-15T08:16:43.789Z,3.48
2018-02-15T08:19:15.832Z,3.46
2018-02-15T08:21:49.407Z,3.46
2018-02-15T08:24:22.178Z,3.51
2018-02-15T08:26:54.740Z,3.53
2018-02-15T08:29:24.254Z,3.49
2018-02-15T08:31:54.123Z,3.50
2018-02-15T08:34:24.285Z,3.49
2018-02-15T08:36:53.828Z,3.52
2018-02-15T08:39:23.465Z,3.52
2018-02-15T08:41:52.753Z,3.52
2018-02-15T08:44:23.732Z,3.52
2018-02-15T08:46:56.488Z,3.54
2018-02-15T08:49:29.055Z,3.52
2018-02-15T08:52:01.210Z,3.51
2018-02-15T08:56:31.546Z,3.49
2018-02-15T08:59:01.075Z,3.48
2018-02-15T09:01:30.691Z,3.48
2018-02-15T09:03:59.894Z,3.52
2018-02-15T09:06:29.255Z,3.58
2018-02-15T09:08:58.894Z,3.55
2018-02-15T09:11:28.047Z,3.56
2018-02-15T09:13:57.453Z,3.53
2018-02-15T09:16:26.787Z,3.53
2018-02-15T09:18:56.145Z,3.53
2018-02-15T09:21:25.758Z,3.56
2018-02-15T09:23:54.861Z,3.53
2018-02-15T09:26:24.011Z,3.48
2018-02-15T09:28:53.363Z,3.51
2018-02-15T09:31:23.051Z,3.54
2018-02-15T09:33:53.508Z,3.56
2018-02-15T09:36:23.277Z,3.55
2018-02-15T09:38:52.880Z,3.53
2018-02-15T09:41:24.916Z,3.55
2018-02-15T09:43:58.221Z,3.56
2018-02-15T09:46:30.515Z,3.56
2018-02-15T09:49:00.700Z,3.55
2018-02-15T09:51:30.892Z,3.57
2018-02-15T09:54:00.814Z,3.55
2018-02-15T09:56:30.814Z,3.55
2018-02-15T09:59:00.410Z,3.56
2018-02-15T10:01:31.018Z,3.54
2018-02-15T10:04:00.927Z,3.55
2018-02-15T10:06:30.666Z,3.57
2018-02-15T10:08:59.790Z,3.60
2018-02-15T10:11:29.087Z,3.58
2018-02-15T10:13:58.689Z,3.58
2018-02-15T10:16:29.677Z,3.58
2018-02-15T10:19:00.861Z,3.59
2018-02-15T10:21:33.657Z,3.60
2018-02-15T10:24:06.733Z,3.59
2018-02-15T10:26:39.722Z,3.58
2018-02-15T10:29:13.705Z,3.55
2018-02-15T10:31:45.714Z,3.57
2018-02-15T10:34:18.775Z,3.53
2018-02-15T10:36:49.792Z,3.56
2018-02-15T10:39:22.718Z,3.57
2018-02-15T10:41:56.765Z,3.59
2018-02-15T10:44:27.933Z,3.62
2018-02-15T10:46:58.990Z,3.61
2018-02-15T10:49:32.727Z,3.61
2018-02-15T10:52:05.682Z,3.61
2018-02-15T10:54:38.723Z,3.59
2018-02-15T10:57:11.008Z,3.54
2018-02-15T10:59:43.654Z,3.60
2018-02-15T11:02:21.685Z,3.58
2018-02-15T11:05:00.770Z,3.60
2018-02-15T11:07:34.863Z,3.60
2018-02-15T11:10:07.784Z,3.61
2018-02-15T11:12:38.790Z,3.60
2018-02-15T11:15:11.046Z,3.60
2018-02-15T11:17:44.757Z,3.60
2018-02-15T11:20:16.734Z,3.62
2018-02-15T11:22:49.014Z,3.62
2018-02-15T11:25:22.628Z,3.60
2018-02-15T11:27:55.566Z,3.61
2018-02-15T11:30:29.081Z,3.61
2018-02-15T11:33:03.645Z,3.62
2018-02-15T11:35:37.726Z,3.60
2018-02-15T11:38:09.749Z,3.60
2018-02-15T11:40:42.213Z,3.61
2018-02-15T11:43:13.749Z,3.60
2018-02-15T11:45:51.398Z,3.59
2018-02-15T11:48:23.704Z,3.63
2018-02-15T11:50:56.036Z,3.60
2018-02-15T11:53:28.728Z,3.63
2018-02-15T11:56:03.095Z,3.62
2018-02-15T11:58:35.721Z,3.63
2018-02-15T12:01:08.687Z,3.64
2018-02-15T12:03:41.730Z,3.60
2018-02-15T12:06:13.712Z,3.61
2018-02-15T12:08:47.685Z,3.63
2018-02-15T12:11:19.807Z,3.62
2018-02-15T12:13:53.770Z,3.61
2018-02-15T12:16:26.798Z,3.61
2018-02-15T12:19:00.278Z,3.62
2018-02-15T12:21:34.757Z,3.62
2018-02-15T12:24:07.923Z,3.60
2018-02-15T12:26:40.654Z,3.60
2018-02-15T12:29:12.723Z,3.62
2018-02-15T12:31:45.703Z,3.61
2018-02-15T12:34:18.798Z,3.62
2018-02-15T12:36:51.743Z,3.62
2018-02-15T12:39:24.700Z,3.62
2018-02-15T12:42:02.745Z,3.63
2018-02-15T12:44:35.642Z,3.63
2018-02-15T12:47:09.081Z,3.62
2018-02-15T12:49:40.726Z,3.61
2018-02-15T12:52:15.724Z,3.62
2018-02-15T12:54:45.798Z,3.61
2018-02-15T12:57:15.592Z,3.61
2018-02-15T12:59:44.776Z,3.62
2018-02-15T13:02:14.275Z,3.62
2018-02-15T13:04:44.122Z,3.66
2018-02-15T13:07:13.812Z,3.64
2018-02-15T13:09:43.344Z,3.65
2018-02-15T13:12:18.936Z,3.64
2018-02-15T13:14:48.622Z,3.65
2018-02-15T13:17:17.736Z,3.66
2018-02-15T13:19:52.828Z,3.65
2018-02-15T13:33:46.575Z,3.65
2018-02-15T13:36:15.793Z,3.69
2018-02-15T13:38:45.033Z,3.67
2018-02-15T13:41:14.674Z,3.67
2018-02-15T13:43:44.046Z,3.70
2018-02-15T13:46:13.683Z,3.71
2018-02-15T13:48:42.890Z,3.72
2018-02-15T13:51:12.239Z,3.73
2018-02-15T13:53:41.784Z,3.73
2018-02-15T13:56:11.337Z,3.69
2018-02-15T13:58:40.864Z,3.71
2018-02-15T14:01:10.128Z,3.74
2018-02-15T14:03:39.822Z,3.74
2018-02-15T14:06:09.494Z,3.73
2018-02-15T14:08:38.829Z,3.72
2018-02-15T14:11:08.123Z,3.72
2018-02-15T14:13:38.539Z,3.71
2018-02-15T14:16:22.802Z,3.75
2018-02-15T14:18:52.224Z,3.75
2018-02-15T14:21:21.949Z,3.75
2018-02-15T14:23:51.629Z,3.77
2018-02-15T14:26:20.775Z,3.77
2018-02-15T14:28:49.921Z,3.78
2018-02-15T14:31:19.223Z,3.80
2018-02-15T14:33:48.796Z,3.76
2018-02-15T14:36:18.068Z,3.75
2018-02-15T14:38:47.797Z,3.77
2018-02-15T14:41:16.863Z,3.74
2018-02-15T14:43:46.058Z,3.81
2018-02-15T14:46:15.818Z,3.77
2018-02-15T14:48:45.032Z,3.78
2018-02-15T14:51:14.614Z,3.82
2018-02-15T14:53:43.831Z,3.84
2018-02-15T14:56:13.037Z,3.82
2018-02-15T14:58:42.254Z,3.83
2018-02-15T15:01:11.815Z,3.84
2018-02-15T15:03:41.063Z,3.82
2018-02-15T15:06:10.679Z,3.82
2018-02-15T15:08:39.853Z,3.82
2018-02-15T15:11:09.334Z,3.85
2018-02-15T15:13:38.864Z,3.85
2018-02-15T15:16:08.260Z,3.83
2018-02-15T15:18:37.710Z,3.90
2018-02-15T15:21:06.934Z,3.89
2018-02-15T15:23:36.662Z,3.93
2018-02-15T15:26:06.215Z,3.91
2018-02-15T15:28:35.784Z,3.86
2018-02-15T15:31:05.725Z,3.91
2018-02-15T15:33:34.803Z,3.98
2018-02-15T15:36:03.964Z,3.91
2018-02-15T15:38:33.267Z,3.91
2018-02-15T15:41:02.807Z,3.90
2018-02-15T15:43:32.024Z,3.94
2018-02-15T15:46:01.694Z,3.94
2018-02-15T15:48:31.077Z,3.94
2018-02-15T15:51:00.662Z,3.94
2018-02-15T15:53:29.896Z,3.95
2018-02-15T15:55:59.284Z,3.92
2018-02-15T15:58:28.813Z,3.95
2018-02-15T16:00:58.296Z,3.98
2018-02-15T16:03:27.871Z,3.98
2018-02-15T16:05:57.781Z,3.92
2018-02-15T16:08:27.059Z,3.99
2018-02-15T16:10:56.698Z,4.00
2018-02-15T16:13:25.765Z,3.98
2018-02-15T16:15:54.854Z,3.96
2018-02-15T16:18:24.426Z,4.01
2018-02-15T16:20:53.951Z,4.04
2018-02-15T16:23:23.464Z,4.02
2018-02-15T16:25:52.923Z,4.02
2018-02-15T16:28:24.893Z,4.02
2018-02-15T16:30:54.261Z,4.08
2018-02-15T16:33:23.812Z,4.04
2018-02-15T16:35:53.208Z,4.03
2018-02-15T16:38:22.899Z,4.03
2018-02-15T16:40:52.094Z,4.09
2018-02-15T16:43:21.787Z,4.09
2018-02-15T16:45:51.244Z,4.07
2018-02-15T16:48:20.885Z,4.05
2018-02-15T16:50:50.088Z,4.06
2018-02-15T16:53:19.771Z,4.08
2018-02-15T16:55:49.249Z,4.10
2018-02-15T16:58:18.815Z,4.08
2018-02-15T17:00:48.110Z,4.06
2018-02-15T17:03:17.769Z,4.14
2018-02-15T17:05:47.089Z,4.16
2018-02-15T17:08:16.831Z,4.20
2018-02-15T17:10:46.431Z,4.19
2018-02-15T17:13:15.874Z,4.12
2018-02-15T17:15:45.298Z,4.14
2018-02-15T17:18:14.820Z,4.15
2018-02-15T17:20:44.040Z,4.12
2018-02-15T17:23:13.572Z,4.14
2018-02-15T17:25:42.777Z,4.17
2018-02-15T17:28:12.245Z,4.14
2018-02-15T17:30:41.807Z,4.21
2018-02-15T17:33:11.140Z,4.20
2018-02-15T17:35:40.680Z,4.22
2018-02-15T17:38:09.795Z,4.25
2018-02-15T17:40:38.941Z,4.20
2018-02-15T17:43:08.255Z,4.26
2018-02-15T17:45:37.685Z,4.32
2018-02-15T17:48:06.849Z,4.27
2018-02-15T17:50:36.095Z,4.23
2018-02-15T17:53:05.768Z,4.23
2018-02-15T17:55:34.752Z,4.18
2018-02-15T17:58:04.089Z,4.27
2018-02-15T18:00:33.677Z,4.31
2018-02-15T18:03:02.804Z,5.85
2018-02-15T18:05:31.920Z,6.35
2018-02-15T18:08:01.282Z,6.59
2018-02-15T18:10:30.713Z,6.78
2018-02-15T18:12:59.783Z,6.93
2018-02-15T18:15:29.082Z,7.04
2018-02-15T18:18:00.746Z,7.19
2018-02-15T18:20:29.763Z,7.24
2018-02-15T18:22:58.793Z,7.28
2018-02-15T18:25:28.069Z,7.41
2018-02-15T18:27:57.897Z,7.45
2018-02-15T18:30:26.774Z,7.52
2018-02-15T18:32:55.785Z,7.57
2018-02-15T18:35:25.107Z,7.59
2018-02-15T18:37:54.817Z,7.59
2018-02-15T18:40:24.219Z,7.65
2018-02-15T18:42:53.785Z,7.67
2018-02-15T18:45:23.083Z,7.71
2018-02-15T18:47:52.763Z,7.70
2018-02-15T18:50:22.077Z,7.73
2018-02-15T18:52:51.823Z,7.72
2018-02-15T18:55:20.890Z,7.70
2018-02-15T18:57:50.234Z,7.77
2018-02-15T19:00:19.817Z,7.76
2018-02-15T19:04:44.819Z,7.81
2018-02-15T19:07:14.801Z,7.91
2018-02-15T19:09:44.656Z,7.85
2018-02-15T19:12:14.603Z,7.85
2018-02-15T19:14:43.874Z,7.86
2018-02-15T19:17:13.438Z,7.89
2018-02-15T19:19:42.763Z,7.92
2018-02-15T19:22:11.871Z,7.94
2018-02-15T19:24:40.862Z,7.93
2018-02-15T19:27:09.862Z,7.92
2018-02-15T19:29:38.852Z,7.87
2018-02-15T19:32:08.300Z,7.86
2018-02-15T19:34:37.767Z,7.86
2018-02-15T19:37:06.778Z,7.86
2018-02-15T19:39:35.754Z,7.89
2018-02-15T19:42:04.762Z,7.86
2018-02-15T19:44:33.789Z,7.84
2018-02-15T19:47:02.809Z,7.86
2018-02-15T19:49:31.813Z,7.83
2018-02-15T19:52:00.881Z,7.83
2018-02-15T19:54:30.029Z,7.79
2018-02-15T19:56:58.920Z,7.76
2018-02-15T19:59:27.795Z,7.76
2018-02-15T20:01:56.822Z,7.74
2018-02-15T20:04:25.844Z,7.77
2018-02-15T20:06:54.775Z,7.72
2018-02-15T20:09:23.819Z,7.75
2018-02-15T20:11:52.817Z,7.70
2018-02-15T20:14:21.770Z,7.68
2018-02-15T20:16:50.764Z,7.70
2018-02-15T20:19:19.803Z,7.68
2018-02-15T20:21:48.855Z,7.65
2018-02-15T20:24:17.866Z,7.63
2018-02-15T20:26:52.724Z,7.60
2018-02-15T20:29:22.089Z,7.57
2018-02-15T20:31:51.242Z,7.56
2018-02-15T20:34:20.764Z,7.56
2018-02-15T20:36:49.739Z,7.50
2018-02-15T20:39:24.675Z,7.49
2018-02-15T20:41:53.753Z,7.46
2018-02-15T20:44:22.752Z,7.43
2018-02-15T20:46:51.763Z,7.42
2018-02-15T20:52:11.533Z,7.43
2018-02-15T20:54:47.420Z,7.40
2018-02-15T21:04:18.534Z,7.31
2018-02-15T21:06:48.521Z,7.31
2018-02-15T21:09:18.454Z,7.26
2018-02-15T21:11:47.746Z,7.25
2018-02-15T21:14:16.781Z,7.28
2018-02-15T21:16:45.748Z,7.24
2018-02-15T21:19:14.770Z,7.20
2018-02-15T21:21:43.759Z,7.18
2018-02-15T21:24:12.794Z,7.18
2018-02-15T21:26:41.769Z,7.16
2018-02-15T21:29:10.802Z,7.14
2018-02-15T21:31:39.822Z,7.16
2018-02-15T21:34:10.690Z,7.14
2018-02-15T21:36:43.709Z,7.12
2018-02-15T21:39:12.757Z,7.08
2018-02-15T21:41:41.784Z,7.12
2018-02-15T21:44:10.752Z,7.04
2018-02-15T21:46:39.763Z,7.03
2018-02-15T21:49:08.740Z,6.98
2018-02-15T21:51:37.766Z,6.97
2018-02-15T21:54:06.746Z,6.98
2018-02-15T21:56:36.063Z,6.94
2018-02-15T21:59:05.251Z,6.95
2018-02-15T22:01:34.684Z,6.88
2018-02-15T22:04:03.711Z,6.87
2018-02-15T22:06:32.724Z,6.88
2018-02-15T22:09:01.743Z,6.84
2018-02-15T22:11:30.722Z,6.83
2018-02-15T22:13:59.729Z,6.83
2018-02-15T22:16:28.735Z,6.81
2018-02-15T22:18:57.716Z,6.80
2018-02-15T22:21:26.756Z,6.73
2018-02-15T22:23:55.767Z,6.74
2018-02-15T22:26:24.774Z,6.74
2018-02-15T22:28:53.731Z,6.69
2018-02-15T22:31:22.743Z,6.67
2018-02-15T22:33:51.731Z,6.67
2018-02-15T22:36:20.731Z,6.67
2018-02-15T22:38:49.728Z,6.62
2018-02-15T22:41:18.748Z,6.61
2018-02-15T22:43:47.746Z,6.61
2018-02-15T22:46:16.726Z,6.59
2018-02-15T22:48:45.746Z,6.57
2018-02-15T22:51:14.759Z,6.55
2018-02-15T22:53:43.818Z,6.53
2018-02-15T22:56:12.763Z,6.52
2018-02-15T22:58:41.758Z,6.51
2018-02-15T23:01:10.750Z,6.48
2018-02-15T23:03:39.759Z,6.47
2018-02-15T23:06:08.826Z,6.45
2018-02-15T23:08:37.770Z,6.42
2018-02-15T23:11:06.786Z,6.41
2018-02-15T23:13:35.772Z,6.39
2018-02-15T23:16:04.825Z,6.39
2018-02-15T23:18:33.784Z,6.38
2018-02-15T23:21:02.779Z,6.37
2018-02-15T23:23:31.776Z,6.34
2018-02-15T23:26:00.776Z,6.33
2018-02-15T23:28:29.796Z,6.33
2018-02-15T23:30:58.763Z,6.29
2018-02-15T23:33:27.740Z,6.29
2018-02-15T23:35:56.753Z,6.28
2018-02-15T23:38:25.763Z,6.25
2018-02-15T23:40:54.866Z,6.25
2018-02-15T23:43:23.776Z,6.24
2018-02-15T23:45:52.763Z,6.20
2018-02-15T23:48:21.781Z,6.16
2018-02-15T23:50:50.741Z,6.13
2018-02-15T23:53:19.775Z,6.13
2018-02-15T23:55:48.770Z,6.10
2018-02-15T23:58:17.764Z,6.09
